MKJP

Kingston/Norman Manley International Airport

Airport
ICAO code
MKJP
IATA Code
KIN
Summary
ICAO Region
CARSAM
ICAO Territory
Location

Palisadoes,

Serving
Kingston
Elevation
10 ft
Coordinates
17° 56' 8" N , 76° 47' 13" W
KCC
Airport RE
Landing on Contaminated Runways
Metar
Observation
MKJP 080800Z VRB02KT 9999 SCT020 25/20 Q1014
Station
Kingston / Norman Manley
Date/Time
2022-12-08 08:00:00
Wind speed
02 kts
Lowest cloud amount
scattered clouds
Temperature
25°C
Dew point
20°C
Humidity
73%
QNH
1014 hPa
Weather condition
n/a

Description

International airport serving Kingston, Jamaica.

Climatology

Tropical Savanna climate (Köppen climate classification Aw) - monthly mean temperatures above 18°C, and a pronounced dry season. A Tropical Savanna climate has more pronounced dry seasons than a Tropical Monsoon climate.

Jamaica is vulnerable to Hurricanes from July to October.

Runways

Designator Length Width Surface Rops
12/30 2713 46 ASP Yes/Yes

Airport map

Aerial View

Airport accidents

SKYbrary Partners:

Safety knowledge contributed by: